Time;durP1;ratioP1;P1;durP2;ratioP2;P2;SDS_P1;SDS_P2;PMS_P1;PMS_P2;Temp;Humidity;BMP_temperature;BMP_pressure;BME280_temperature;BME280_humidity;BME280_pressure;Samples;Min_cycle;Max_cycle;Signal;HPM_P1;HPM_P2
2022/08/16 00:01:50;;;;;;;2.47;2.28;;;;;;;;;;5051612;28;20233;-83
2022/08/16 00:04:18;;;;;;;4.22;2.95;;;;;;;;;;5052725;28;20277;-84
2022/08/16 00:06:45;;;;;;;3.38;2.45;;;;;;;;;;5051530;28;20230;-83
2022/08/16 00:09:13;;;;;;;2.63;2.42;;;;;;;;;;5052805;28;20226;-83
2022/08/16 00:11:41;;;;;;;4.65;2.40;;;;;;;;;;5051508;28;20230;-86
2022/08/16 00:14:10;;;;;;;3.63;2.50;;;;;;;;;;5058888;28;20221;-83
2022/08/16 00:16:37;;;;;;;2.70;2.50;;;;;;;;;;5057768;28;20732;-84
2022/08/16 00:19:04;;;;;;;2.72;2.53;;;;;;;;;;5053200;28;20229;-82
2022/08/16 00:21:33;;;;;;;3.20;2.20;;;;;;;;;;5052504;28;20233;-83
2022/08/16 00:24:00;;;;;;;2.88;2.58;;;;;;;;;;5052230;28;20202;-83
2022/08/16 00:26:27;;;;;;;3.80;2.90;;;;;;;;;;5051788;28;20226;-83
2022/08/16 00:28:54;;;;;;;2.58;2.30;;;;;;;;;;5052024;28;20218;-84
2022/08/16 00:31:21;;;;;;;2.72;2.38;;;;;;;;;;5051701;28;20773;-83
2022/08/16 00:33:48;;;;;;;2.95;2.75;;;;;;;;;;5052405;28;20527;-84
2022/08/16 00:36:15;;;;;;;3.22;2.53;;;;;;;;;;5051912;28;20238;-83
2022/08/16 00:38:44;;;;;;;2.70;2.50;;;;;;;;;;5052173;28;20230;-83
2022/08/16 00:41:11;;;;;;;3.17;2.88;;;;;;;;;;5051485;28;20275;-83
2022/08/16 00:43:38;;;;;;;2.85;2.55;;;;;;;;;;5052149;28;20217;-83
2022/08/16 00:46:10;;;;;;;7.00;2.80;;;;;;;;;;5053959;28;20237;-83
2022/08/16 00:48:37;;;;;;;4.28;3.08;;;;;;;;;;5055838;28;20599;-82
2022/08/16 00:51:05;;;;;;;2.85;2.65;;;;;;;;;;5054921;28;20218;-83
2022/08/16 00:53:32;;;;;;;2.58;2.22;;;;;;;;;;5056260;28;20592;-83
2022/08/16 00:56:02;;;;;;;3.03;2.45;;;;;;;;;;5055558;28;20601;-83
2022/08/16 00:58:31;;;;;;;4.03;2.95;;;;;;;;;;5055913;28;20235;-83
2022/08/16 01:00:59;;;;;;;3.03;2.72;;;;;;;;;;5054142;28;20242;-83
2022/08/16 01:03:27;;;;;;;3.38;2.50;;;;;;;;;;5053797;28;20218;-83
2022/08/16 01:05:54;;;;;;;3.10;2.78;;;;;;;;;;5035100;28;20725;-83
2022/08/16 01:08:24;;;;;;;2.65;2.45;;;;;;;;;;5049177;28;20222;-82
2022/08/16 01:10:51;;;;;;;3.60;2.70;;;;;;;;;;5055014;28;20258;-83
2022/08/16 01:13:22;;;;;;;3.03;2.72;;;;;;;;;;5055495;28;20662;-83
2022/08/16 01:15:50;;;;;;;2.80;2.50;;;;;;;;;;5055091;28;20230;-83
2022/08/16 01:18:19;;;;;;;2.75;2.53;;;;;;;;;;5055219;28;20229;-83
2022/08/16 01:20:50;;;;;;;2.97;2.70;;;;;;;;;;5054954;28;20348;-83
2022/08/16 01:23:21;;;;;;;2.92;2.72;;;;;;;;;;5055441;28;20202;-83
2022/08/16 01:25:52;;;;;;;3.03;2.72;;;;;;;;;;5055138;28;20229;-84
2022/08/16 01:28:21;;;;;;;2.80;2.60;;;;;;;;;;5055283;28;20295;-83
2022/08/16 01:30:50;;;;;;;3.25;2.75;;;;;;;;;;5054560;28;20229;-82
2022/08/16 01:33:18;;;;;;;3.58;2.67;;;;;;;;;;5054916;28;20237;-83
2022/08/16 01:35:47;;;;;;;3.50;2.90;;;;;;;;;;5054656;28;20226;-83
2022/08/16 01:38:16;;;;;;;2.88;2.53;;;;;;;;;;5054954;28;20638;-83
2022/08/16 01:40:43;;;;;;;3.50;2.60;;;;;;;;;;5054501;28;20245;-83
2022/08/16 01:43:12;;;;;;;3.15;2.83;;;;;;;;;;5055218;28;20244;-82
2022/08/16 01:45:39;;;;;;;3.42;3.10;;;;;;;;;;5034999;28;20667;-83
2022/08/16 01:48:06;;;;;;;4.78;3.00;;;;;;;;;;5044762;28;20234;-83
2022/08/16 01:50:34;;;;;;;3.90;3.40;;;;;;;;;;5058654;28;20240;-83
2022/08/16 01:53:01;;;;;;;3.05;2.47;;;;;;;;;;5054891;28;20202;-82
2022/08/16 01:55:30;;;;;;;3.92;2.92;;;;;;;;;;5054669;28;20257;-83
2022/08/16 01:57:57;;;;;;;3.30;3.00;;;;;;;;;;5053757;28;20790;-83
2022/08/16 02:00:25;;;;;;;7.72;3.13;;;;;;;;;;5054128;28;20240;-83
2022/08/16 02:02:53;;;;;;;4.38;3.83;;;;;;;;;;5040276;28;20218;-83
2022/08/16 02:05:20;;;;;;;3.55;2.92;;;;;;;;;;5054115;28;20230;-83
2022/08/16 02:07:47;;;;;;;6.22;2.92;;;;;;;;;;5054441;28;20209;-83
2022/08/16 02:10:15;;;;;;;3.53;3.08;;;;;;;;;;5054016;28;20249;-83
2022/08/16 02:12:42;;;;;;;4.22;3.28;;;;;;;;;;5034433;28;20207;-83
2022/08/16 02:15:09;;;;;;;4.93;2.83;;;;;;;;;;5043921;28;20716;-83
2022/08/16 02:17:38;;;;;;;5.93;3.53;;;;;;;;;;5054548;28;20209;-84
2022/08/16 02:20:06;;;;;;;3.85;3.38;;;;;;;;;;5061475;28;20225;-84
2022/08/16 02:22:34;;;;;;;3.13;2.90;;;;;;;;;;5057320;28;20222;-84
2022/08/16 02:25:01;;;;;;;3.60;3.25;;;;;;;;;;5055246;28;20260;-84
2022/08/16 02:27:28;;;;;;;4.75;3.58;;;;;;;;;;5054897;28;20681;-85
2022/08/16 02:29:55;;;;;;;3.50;3.20;;;;;;;;;;5054010;28;20221;-84
2022/08/16 02:32:22;;;;;;;3.45;3.15;;;;;;;;;;5036303;28;20300;-84
2022/08/16 02:34:51;;;;;;;3.72;3.33;;;;;;;;;;5053358;28;20206;-85
2022/08/16 02:37:18;;;;;;;3.33;3.03;;;;;;;;;;5053787;28;20214;-85
2022/08/16 02:39:45;;;;;;;3.92;3.50;;;;;;;;;;5053126;28;20230;-84
2022/08/16 02:42:12;;;;;;;4.32;3.63;;;;;;;;;;5053232;28;20237;-84
2022/08/16 02:44:40;;;;;;;3.25;2.97;;;;;;;;;;5053968;28;20638;-84
2022/08/16 02:47:07;;;;;;;4.60;3.35;;;;;;;;;;5053107;28;20769;-84
2022/08/16 02:49:35;;;;;;;3.88;3.30;;;;;;;;;;5053445;28;20229;-83
2022/08/16 02:52:03;;;;;;;7.00;3.67;;;;;;;;;;5052772;28;20267;-84
2022/08/16 02:54:30;;;;;;;4.55;3.55;;;;;;;;;;5053582;28;20206;-84
2022/08/16 02:56:57;;;;;;;4.10;3.30;;;;;;;;;;5052733;28;20615;-84
2022/08/16 02:59:26;;;;;;;4.03;3.63;;;;;;;;;;5054511;28;20709;-84
2022/08/16 03:01:53;;;;;;;4.05;3.65;;;;;;;;;;5052686;28;20229;-83
2022/08/16 03:04:20;;;;;;;4.20;3.08;;;;;;;;;;5052981;28;20193;-84
2022/08/16 03:06:47;;;;;;;4.80;3.50;;;;;;;;;;5052840;28;20320;-84
2022/08/16 03:09:16;;;;;;;4.10;3.70;;;;;;;;;;5053203;28;20222;-85
2022/08/16 03:11:44;;;;;;;4.18;3.83;;;;;;;;;;5052626;28;20230;-84
2022/08/16 03:14:11;;;;;;;3.92;3.55;;;;;;;;;;5053431;28;20202;-84
2022/08/16 03:16:39;;;;;;;4.77;3.87;;;;;;;;;;5052735;28;20725;-84
2022/08/16 03:19:07;;;;;;;5.80;3.85;;;;;;;;;;5053534;28;20233;-84
2022/08/16 03:21:34;;;;;;;4.10;3.72;;;;;;;;;;5052403;28;20229;-84
2022/08/16 03:24:01;;;;;;;3.80;3.42;;;;;;;;;;5052864;28;20198;-84
2022/08/16 03:26:29;;;;;;;5.00;4.23;;;;;;;;;;5052092;28;20226;-84
2022/08/16 03:28:57;;;;;;;4.20;3.80;;;;;;;;;;5053253;28;20233;-83
2022/08/16 03:31:25;;;;;;;3.90;3.58;;;;;;;;;;5032450;28;20243;-85
2022/08/16 03:33:52;;;;;;;8.27;3.73;;;;;;;;;;5033068;28;20720;-84
2022/08/16 03:36:19;;;;;;;4.43;3.63;;;;;;;;;;5032355;28;20230;-85
2022/08/16 03:38:46;;;;;;;4.73;3.70;;;;;;;;;;5032624;28;20262;-84
2022/08/16 03:41:13;;;;;;;8.33;3.57;;;;;;;;;;5032091;28;20234;-84
2022/08/16 03:43:42;;;;;;;6.43;3.37;;;;;;;;;;5032571;28;20223;-84
2022/08/16 03:46:09;;;;;;;4.27;3.87;;;;;;;;;;5032284;28;20239;-85
2022/08/16 03:48:38;;;;;;;7.60;3.90;;;;;;;;;;5032466;28;20257;-83
2022/08/16 03:51:06;;;;;;;3.83;3.50;;;;;;;;;;5032455;28;20245;-84
2022/08/16 03:53:33;;;;;;;4.03;3.50;;;;;;;;;;5033114;28;20203;-85
2022/08/16 03:56:00;;;;;;;5.23;3.50;;;;;;;;;;5032813;28;20230;-84
2022/08/16 03:58:28;;;;;;;4.10;3.70;;;;;;;;;;5032614;28;20234;-84
2022/08/16 04:00:56;;;;;;;5.43;3.80;;;;;;;;;;5032520;28;20242;-85
2022/08/16 04:03:23;;;;;;;3.80;3.40;;;;;;;;;;5050118;28;20291;-83
2022/08/16 04:05:51;;;;;;;5.57;3.60;;;;;;;;;;5052340;28;20723;-85
2022/08/16 04:08:20;;;;;;;5.93;4.30;;;;;;;;;;5052897;28;20217;-84
2022/08/16 04:10:47;;;;;;;5.67;3.73;;;;;;;;;;5052528;28;20244;-84
2022/08/16 04:13:14;;;;;;;7.17;5.53;;;;;;;;;;5052793;28;20202;-84
2022/08/16 04:15:42;;;;;;;6.10;4.07;;;;;;;;;;5052671;28;20234;-83
2022/08/16 04:18:10;;;;;;;4.80;3.93;;;;;;;;;;5053235;28;20230;-84
2022/08/16 04:20:38;;;;;;;6.83;4.40;;;;;;;;;;5054166;28;20241;-84
2022/08/16 04:23:06;;;;;;;7.13;4.00;;;;;;;;;;5056549;28;20581;-84
2022/08/16 04:25:34;;;;;;;4.83;4.37;;;;;;;;;;5056158;28;20233;-84
2022/08/16 04:28:01;;;;;;;4.73;3.77;;;;;;;;;;5056570;28;20209;-84
2022/08/16 04:30:28;;;;;;;5.17;3.90;;;;;;;;;;5056296;28;20245;-84
2022/08/16 04:32:55;;;;;;;5.80;3.93;;;;;;;;;;5056337;28;20206;-84
2022/08/16 04:35:25;;;;;;;6.10;4.03;;;;;;;;;;5055976;28;20245;-84
2022/08/16 04:37:52;;;;;;;4.20;3.80;;;;;;;;;;5056363;28;20305;-84
2022/08/16 04:40:20;;;;;;;4.67;4.20;;;;;;;;;;5055811;28;20245;-83
2022/08/16 04:42:49;;;;;;;4.97;4.43;;;;;;;;;;5056800;28;20272;-83
2022/08/16 04:45:16;;;;;;;4.27;3.90;;;;;;;;;;5056918;28;20238;-83
2022/08/16 04:47:44;;;;;;;5.83;4.27;;;;;;;;;;5056323;28;20628;-83
2022/08/16 04:50:13;;;;;;;7.00;4.47;;;;;;;;;;5055073;28;20244;-83
2022/08/16 04:52:42;;;;;;;5.77;5.17;;;;;;;;;;5065602;28;20212;-84
2022/08/16 04:55:10;;;;;;;5.90;4.40;;;;;;;;;;5050500;28;20264;-84
2022/08/16 04:57:38;;;;;;;6.83;5.23;;;;;;;;;;5035820;28;20679;-83
2022/08/16 05:00:08;;;;;;;5.00;4.50;;;;;;;;;;5035481;28;20582;-83
2022/08/16 05:02:37;;;;;;;7.03;4.67;;;;;;;;;;5036309;28;20226;-83
2022/08/16 05:05:05;;;;;;;7.30;4.93;;;;;;;;;;5035898;28;20246;-83
2022/08/16 05:07:32;;;;;;;6.47;4.73;;;;;;;;;;5035756;28;20663;-83
2022/08/16 05:10:00;;;;;;;6.30;4.37;;;;;;;;;;5035138;28;20238;-83
2022/08/16 05:12:27;;;;;;;6.30;5.70;;;;;;;;;;5040326;28;20207;-82
2022/08/16 05:14:56;;;;;;;6.10;5.10;;;;;;;;;;5040818;28;20217;-82
2022/08/16 05:17:23;;;;;;;7.13;5.07;;;;;;;;;;5041613;28;20214;-82
2022/08/16 05:19:50;;;;;;;6.20;5.30;;;;;;;;;;5040308;28;20719;-82
2022/08/16 05:22:17;;;;;;;6.73;5.13;;;;;;;;;;5040139;28;20203;-82
2022/08/16 05:24:45;;;;;;;7.83;5.87;;;;;;;;;;5040088;28;20214;-82
2022/08/16 05:27:13;;;;;;;6.43;5.30;;;;;;;;;;5039843;28;20234;-82
2022/08/16 05:29:40;;;;;;;5.87;5.37;;;;;;;;;;5039946;28;20230;-82
2022/08/16 05:32:07;;;;;;;6.13;5.30;;;;;;;;;;5039122;28;20237;-84
2022/08/16 05:34:35;;;;;;;6.33;4.67;;;;;;;;;;5037444;28;20678;-81
2022/08/16 05:37:02;;;;;;;8.47;5.67;;;;;;;;;;5038988;28;20235;-81
2022/08/16 05:39:29;;;;;;;8.63;5.63;;;;;;;;;;5090709;22;20225;-81
2022/08/16 05:41:56;;;;;;;7.13;5.33;;;;;;;;;;5070846;28;20243;-81
2022/08/16 05:44:25;;;;;;;7.03;5.27;;;;;;;;;;5068857;28;20244;-81
2022/08/16 05:46:53;;;;;;;8.70;5.40;;;;;;;;;;5062021;28;20237;-82
2022/08/16 05:49:20;;;;;;;7.13;5.90;;;;;;;;;;5065344;28;20240;-81
2022/08/16 05:51:47;;;;;;;7.27;5.27;;;;;;;;;;5065527;28;20236;-83
2022/08/16 05:54:16;;;;;;;7.97;5.17;;;;;;;;;;5054891;28;20293;-83
2022/08/16 05:56:44;;;;;;;7.00;5.17;;;;;;;;;;5053937;28;20270;-83
2022/08/16 05:59:12;;;;;;;6.50;5.10;;;;;;;;;;5054783;28;20316;-83
2022/08/16 06:01:40;;;;;;;9.03;6.00;;;;;;;;;;5053754;28;20275;-84
2022/08/16 06:04:08;;;;;;;8.57;5.80;;;;;;;;;;5054630;28;20625;-84
2022/08/16 06:06:35;;;;;;;5.32;4.82;;;;;;;;;;5053805;28;20745;-84
2022/08/16 06:09:02;;;;;;;6.90;5.07;;;;;;;;;;5054445;28;20879;-84
2022/08/16 06:11:30;;;;;;;6.85;5.70;;;;;;;;;;5054248;28;20256;-83
2022/08/16 06:13:57;;;;;;;6.05;5.45;;;;;;;;;;5055235;28;20658;-83
2022/08/16 06:16:24;;;;;;;10.25;5.35;;;;;;;;;;5054287;28;20241;-84
2022/08/16 06:18:53;;;;;;;5.32;4.82;;;;;;;;;;5062677;28;20233;-84
2022/08/16 06:21:20;;;;;;;6.60;5.03;;;;;;;;;;5053659;28;20234;-84
2022/08/16 06:23:47;;;;;;;5.22;4.72;;;;;;;;;;5055052;28;20236;-84
2022/08/16 06:26:14;;;;;;;5.88;5.05;;;;;;;;;;5054062;28;20242;-83
2022/08/16 06:28:42;;;;;;;7.75;5.05;;;;;;;;;;5053800;28;20266;-84
2022/08/16 06:31:10;;;;;;;5.20;4.70;;;;;;;;;;5053471;28;20234;-84
2022/08/16 06:33:37;;;;;;;7.93;5.07;;;;;;;;;;5053544;28;20202;-83
2022/08/16 06:36:08;;;;;;;6.68;4.97;;;;;;;;;;5053457;28;20244;-84
2022/08/16 06:38:35;;;;;;;6.28;4.47;;;;;;;;;;5053529;28;20256;-84
2022/08/16 06:41:03;;;;;;;6.22;5.15;;;;;;;;;;5053002;28;20238;-84
2022/08/16 06:43:30;;;;;;;8.30;4.88;;;;;;;;;;5049533;28;20222;-82
2022/08/16 06:45:57;;;;;;;8.23;5.18;;;;;;;;;;5049783;28;20229;-84
2022/08/16 06:48:25;;;;;;;7.50;5.00;;;;;;;;;;5060632;28;20216;-84
2022/08/16 06:50:52;;;;;;;5.38;4.88;;;;;;;;;;5060315;28;20292;-84
2022/08/16 06:53:21;;;;;;;6.15;5.55;;;;;;;;;;5053016;28;20205;-84
2022/08/16 06:55:48;;;;;;;6.90;6.25;;;;;;;;;;5054521;28;20302;-84
2022/08/16 06:58:15;;;;;;;6.25;5.75;;;;;;;;;;5072089;28;20208;-84
2022/08/16 07:00:42;;;;;;;8.10;5.85;;;;;;;;;;5068490;28;20654;-81
2022/08/16 07:03:10;;;;;;;7.03;5.85;;;;;;;;;;5065555;28;20225;-84
2022/08/16 07:05:37;;;;;;;5.63;5.10;;;;;;;;;;5072140;28;20239;-85
2022/08/16 07:08:04;;;;;;;9.55;5.22;;;;;;;;;;5072342;28;20228;-83
2022/08/16 07:10:32;;;;;;;6.22;5.22;;;;;;;;;;5078345;28;20254;-84
2022/08/16 07:12:59;;;;;;;7.82;5.50;;;;;;;;;;5077675;28;20642;-85
2022/08/16 07:15:26;;;;;;;6.43;5.55;;;;;;;;;;5071851;28;20237;-85
2022/08/16 07:17:53;;;;;;;7.20;5.95;;;;;;;;;;5071909;28;20220;-85
2022/08/16 07:20:24;;;;;;;7.95;5.47;;;;;;;;;;5068141;28;20241;-84
2022/08/16 07:22:55;;;;;;;7.40;5.50;;;;;;;;;;5071532;28;20208;-82
2022/08/16 07:25:22;;;;;;;6.68;5.57;;;;;;;;;;5072007;28;20315;-82
2022/08/16 07:27:50;;;;;;;6.05;5.30;;;;;;;;;;5071857;28;20208;-81
2022/08/16 07:30:18;;;;;;;6.38;5.25;;;;;;;;;;5071857;28;20338;-81
2022/08/16 07:32:46;;;;;;;6.13;5.53;;;;;;;;;;5085472;28;20653;-83
2022/08/16 07:35:13;;;;;;;5.95;5.30;;;;;;;;;;5077239;28;20241;-82
2022/08/16 07:37:40;;;;;;;5.93;5.13;;;;;;;;;;5079478;28;20203;-82
2022/08/16 07:40:07;;;;;;;5.68;5.10;;;;;;;;;;5085573;28;20241;-83
2022/08/16 07:42:34;;;;;;;5.93;4.28;;;;;;;;;;5085864;28;20649;-83
2022/08/16 07:45:03;;;;;;;5.40;4.97;;;;;;;;;;5080307;28;20217;-83
2022/08/16 07:47:30;;;;;;;5.35;4.22;;;;;;;;;;5086035;28;20204;-82
2022/08/16 07:49:57;;;;;;;5.45;4.03;;;;;;;;;;5083614;28;20233;-85
2022/08/16 07:52:24;;;;;;;4.60;4.20;;;;;;;;;;5080523;28;20215;-84
2022/08/16 07:54:51;;;;;;;4.63;4.18;;;;;;;;;;5087211;28;20201;-85
2022/08/16 07:57:18;;;;;;;5.05;3.85;;;;;;;;;;5090835;28;20209;-85
2022/08/16 07:59:46;;;;;;;4.78;4.15;;;;;;;;;;5089815;28;20228;-85
2022/08/16 08:02:14;;;;;;;5.45;4.05;;;;;;;;;;5084501;28;20212;-86
2022/08/16 08:04:42;;;;;;;5.00;3.53;;;;;;;;;;5088581;28;20236;-84
2022/08/16 08:07:11;;;;;;;3.95;3.55;;;;;;;;;;5079995;28;20240;-83
2022/08/16 08:09:38;;;;;;;4.20;3.35;;;;;;;;;;5092622;28;20233;-82
2022/08/16 08:12:05;;;;;;;5.00;3.80;;;;;;;;;;5095259;28;20236;-82
2022/08/16 08:14:33;;;;;;;4.78;3.70;;;;;;;;;;5095255;28;20201;-81
2022/08/16 08:17:00;;;;;;;4.30;3.53;;;;;;;;;;5094223;28;20290;-82
2022/08/16 08:19:28;;;;;;;4.60;3.72;;;;;;;;;;5083560;28;20236;-83
2022/08/16 08:21:55;;;;;;;4.20;3.78;;;;;;;;;;5094497;28;20236;-82
2022/08/16 08:24:23;;;;;;;4.22;3.80;;;;;;;;;;5090330;28;20243;-81
2022/08/16 08:26:50;;;;;;;5.82;3.60;;;;;;;;;;5093564;28;20237;-81
2022/08/16 08:29:17;;;;;;;4.72;3.22;;;;;;;;;;5090276;28;20236;-83
2022/08/16 08:31:44;;;;;;;6.93;3.50;;;;;;;;;;5077374;28;20241;-82
2022/08/16 08:34:11;;;;;;;4.30;3.80;;;;;;;;;;5086081;28;20201;-83
2022/08/16 08:36:40;;;;;;;3.92;3.55;;;;;;;;;;5081783;28;20751;-83
2022/08/16 08:39:07;;;;;;;6.15;3.53;;;;;;;;;;5076033;28;20593;-83
2022/08/16 08:41:34;;;;;;;3.92;3.50;;;;;;;;;;5075403;28;20307;-83
2022/08/16 08:44:03;;;;;;;5.45;3.53;;;;;;;;;;5063534;28;20230;-82
2022/08/16 08:46:31;;;;;;;5.63;3.67;;;;;;;;;;5068326;28;20708;-81
2022/08/16 08:48:59;;;;;;;7.82;4.05;;;;;;;;;;5075566;28;20233;-85
2022/08/16 08:51:26;;;;;;;4.25;3.88;;;;;;;;;;5074442;28;20237;-83
2022/08/16 08:53:54;;;;;;;3.40;3.10;;;;;;;;;;5074546;28;20201;-83
2022/08/16 08:56:22;;;;;;;4.68;3.25;;;;;;;;;;5074164;28;20259;-83
2022/08/16 08:58:49;;;;;;;4.60;3.50;;;;;;;;;;5074815;28;20235;-83
2022/08/16 09:01:17;;;;;;;3.83;2.97;;;;;;;;;;5074929;28;20236;-82
2022/08/16 09:03:45;;;;;;;5.65;2.90;;;;;;;;;;5074307;28;20294;-84
2022/08/16 09:06:12;;;;;;;4.32;2.80;;;;;;;;;;5074131;28;20237;-84
2022/08/16 09:08:39;;;;;;;5.07;2.90;;;;;;;;;;5074068;28;20226;-84
2022/08/16 09:11:10;;;;;;;4.72;2.97;;;;;;;;;;5073814;28;20732;-84
2022/08/16 09:13:37;;;;;;;2.60;2.40;;;;;;;;;;5074923;28;20205;-84
2022/08/16 09:16:04;;;;;;;3.08;2.33;;;;;;;;;;5074496;28;20248;-84
2022/08/16 09:18:31;;;;;;;3.28;2.80;;;;;;;;;;5076938;28;20233;-82
2022/08/16 09:20:59;;;;;;;3.20;2.80;;;;;;;;;;5074152;28;20244;-84
2022/08/16 09:23:26;;;;;;;4.25;2.58;;;;;;;;;;5074612;28;20216;-82
2022/08/16 09:25:53;;;;;;;2.97;2.50;;;;;;;;;;5074568;28;20236;-86
2022/08/16 09:28:21;;;;;;;2.85;2.65;;;;;;;;;;5075567;28;20576;-84
2022/08/16 09:30:48;;;;;;;5.38;2.65;;;;;;;;;;5074340;28;20237;-81
2022/08/16 09:33:17;;;;;;;5.57;3.20;;;;;;;;;;5071147;28;20201;-84
2022/08/16 09:35:44;;;;;;;4.63;3.08;;;;;;;;;;5073796;28;20291;-84
2022/08/16 09:38:12;;;;;;;4.82;2.63;;;;;;;;;;5082262;28;20292;-84
2022/08/16 09:40:39;;;;;;;5.63;2.70;;;;;;;;;;5064722;28;20237;-83
2022/08/16 09:43:07;;;;;;;3.35;3.00;;;;;;;;;;5072106;28;20210;-83
2022/08/16 09:45:37;;;;;;;3.13;2.83;;;;;;;;;;5061230;28;20617;-83
2022/08/16 09:48:05;;;;;;;3.70;2.92;;;;;;;;;;5056731;28;20217;-83
2022/08/16 09:50:34;;;;;;;3.92;2.60;;;;;;;;;;5052986;28;20237;-84
2022/08/16 09:53:01;;;;;;;3.08;2.67;;;;;;;;;;5053672;28;20256;-85
2022/08/16 09:55:29;;;;;;;4.72;2.63;;;;;;;;;;5053522;28;20242;-84
2022/08/16 09:57:56;;;;;;;3.08;2.53;;;;;;;;;;5053846;28;20592;-84
2022/08/16 10:00:25;;;;;;;3.47;2.85;;;;;;;;;;5052869;28;20261;-84
2022/08/16 10:02:53;;;;;;;5.40;2.67;;;;;;;;;;5053292;28;20206;-84
2022/08/16 10:05:21;;;;;;;2.65;2.45;;;;;;;;;;5047838;28;20233;-84
2022/08/16 10:07:51;;;;;;;3.88;2.97;;;;;;;;;;5074257;28;20232;-85
2022/08/16 10:10:19;;;;;;;3.50;3.10;;;;;;;;;;5073282;28;20237;-84
2022/08/16 10:15:31;;;;;;;3.03;2.80;;;;;;;;;;5073553;28;20231;-84
2022/08/16 10:18:00;;;;;;;4.53;3.10;;;;;;;;;;5072777;28;20216;-84
2022/08/16 10:20:28;;;;;;;3.20;2.90;;;;;;;;;;5074022;28;20236;-84
2022/08/16 10:22:55;;;;;;;5.00;2.83;;;;;;;;;;5073982;28;20288;-84
2022/08/16 10:25:22;;;;;;;3.20;2.40;;;;;;;;;;5073665;28;20240;-84
2022/08/16 10:27:49;;;;;;;3.88;3.13;;;;;;;;;;5073437;28;20543;-84
2022/08/16 10:30:17;;;;;;;3.72;2.60;;;;;;;;;;5073048;28;20245;-84
2022/08/16 10:32:44;;;;;;;3.78;2.78;;;;;;;;;;5072780;28;20204;-85
2022/08/16 10:35:13;;;;;;;3.80;2.58;;;;;;;;;;5073069;28;20330;-85
2022/08/16 10:37:40;;;;;;;2.83;2.60;;;;;;;;;;5072580;28;20587;-84
2022/08/16 10:40:08;;;;;;;3.15;2.90;;;;;;;;;;5072371;28;20260;-85
2022/08/16 10:42:35;;;;;;;3.15;2.55;;;;;;;;;;5072527;28;20217;-85
2022/08/16 10:45:03;;;;;;;2.85;2.65;;;;;;;;;;5072058;28;20236;-85
2022/08/16 10:47:30;;;;;;;2.50;2.30;;;;;;;;;;5072505;28;20208;-82
2022/08/16 10:49:58;;;;;;;3.50;3.20;;;;;;;;;;5072384;28;20316;-84
2022/08/16 10:52:26;;;;;;;4.20;2.63;;;;;;;;;;5065673;28;20206;-85
2022/08/16 10:54:54;;;;;;;3.17;2.47;;;;;;;;;;5070248;28;20821;-85
2022/08/16 10:57:21;;;;;;;3.30;3.00;;;;;;;;;;5071673;28;20205;-84
2022/08/16 10:59:48;;;;;;;2.85;2.65;;;;;;;;;;5070606;28;20232;-84
2022/08/16 11:02:16;;;;;;;3.30;3.03;;;;;;;;;;5072028;28;20291;-85
2022/08/16 11:04:44;;;;;;;4.18;2.90;;;;;;;;;;5070838;28;20221;-85
2022/08/16 11:07:11;;;;;;;4.10;2.97;;;;;;;;;;5072618;28;20696;-84
2022/08/16 11:09:40;;;;;;;2.95;2.40;;;;;;;;;;5072250;28;20721;-84
2022/08/16 11:12:08;;;;;;;3.13;2.65;;;;;;;;;;5072348;28;20240;-84
2022/08/16 11:14:35;;;;;;;4.20;2.50;;;;;;;;;;5072535;28;20203;-83
2022/08/16 11:17:04;;;;;;;2.88;2.60;;;;;;;;;;5071723;28;20236;-84
2022/08/16 11:19:31;;;;;;;3.63;2.40;;;;;;;;;;5073028;28;20236;-86
2022/08/16 11:21:59;;;;;;;3.45;2.70;;;;;;;;;;5071701;28;20244;-86
2022/08/16 11:24:26;;;;;;;2.63;2.42;;;;;;;;;;5072640;28;20225;-85
2022/08/16 11:26:54;;;;;;;3.88;2.70;;;;;;;;;;5072175;28;20236;-84
2022/08/16 11:29:21;;;;;;;2.83;2.63;;;;;;;;;;5072173;28;20320;-84
2022/08/16 11:31:49;;;;;;;2.80;2.60;;;;;;;;;;5071252;28;20264;-85
2022/08/16 11:34:16;;;;;;;2.50;2.33;;;;;;;;;;5072416;28;20232;-83
2022/08/16 11:36:43;;;;;;;4.13;2.33;;;;;;;;;;5071806;28;20260;-82
2022/08/16 11:39:10;;;;;;;2.47;2.28;;;;;;;;;;5071973;28;20252;-84
2022/08/16 11:41:37;;;;;;;4.78;3.40;;;;;;;;;;5071254;28;20229;-84
2022/08/16 11:44:06;;;;;;;3.00;2.80;;;;;;;;;;5072232;28;20212;-84
2022/08/16 11:46:34;;;;;;;6.85;2.97;;;;;;;;;;5071764;28;20259;-83
2022/08/16 11:49:01;;;;;;;4.63;3.10;;;;;;;;;;5071713;28;20272;-84
2022/08/16 11:51:28;;;;;;;2.70;2.50;;;;;;;;;;5071487;28;20233;-83
2022/08/16 11:53:56;;;;;;;6.20;2.90;;;;;;;;;;5071694;28;20220;-84
2022/08/16 11:56:23;;;;;;;5.22;2.92;;;;;;;;;;5071160;28;20239;-83
2022/08/16 11:58:50;;;;;;;3.65;2.80;;;;;;;;;;5071414;28;20776;-83
2022/08/16 12:01:19;;;;;;;2.80;2.60;;;;;;;;;;5071106;28;20248;-85
2022/08/16 12:03:46;;;;;;;2.50;2.30;;;;;;;;;;5071443;28;20209;-85
2022/08/16 12:06:14;;;;;;;2.78;2.33;;;;;;;;;;5071040;28;20241;-84
2022/08/16 12:08:41;;;;;;;3.60;2.47;;;;;;;;;;5071181;28;20233;-84
2022/08/16 12:11:09;;;;;;;3.13;2.85;;;;;;;;;;5070794;28;20736;-84
2022/08/16 12:13:36;;;;;;;3.17;2.50;;;;;;;;;;5071585;28;20201;-84
2022/08/16 12:16:05;;;;;;;4.50;2.33;;;;;;;;;;5071352;28;20232;-84
2022/08/16 12:18:33;;;;;;;3.38;2.50;;;;;;;;;;5071155;28;20316;-83
2022/08/16 12:21:00;;;;;;;2.65;2.40;;;;;;;;;;5070613;28;20294;-81
2022/08/16 12:23:28;;;;;;;2.58;2.20;;;;;;;;;;5071139;28;20216;-82
2022/08/16 12:25:56;;;;;;;4.78;2.50;;;;;;;;;;5070775;28;20248;-81
2022/08/16 12:28:24;;;;;;;3.47;2.55;;;;;;;;;;5070258;28;20251;-81
2022/08/16 12:30:52;;;;;;;3.35;2.58;;;;;;;;;;5070567;28;20244;-83
2022/08/16 12:33:19;;;;;;;2.90;2.70;;;;;;;;;;5071071;28;20232;-82
2022/08/16 12:35:48;;;;;;;2.28;2.17;;;;;;;;;;5070715;28;20233;-81
2022/08/16 12:38:16;;;;;;;3.80;2.70;;;;;;;;;;5071153;28;20205;-82
2022/08/16 12:40:45;;;;;;;2.50;2.20;;;;;;;;;;5070522;28;20248;-80
2022/08/16 12:43:13;;;;;;;2.38;2.20;;;;;;;;;;5074775;28;20208;-79
2022/08/16 12:45:42;;;;;;;2.50;2.30;;;;;;;;;;5074653;28;20241;-80
2022/08/16 12:50:59;;;;;;;3.78;2.47;;;;;;;;;;5074500;28;20285;-82
2022/08/16 12:53:26;;;;;;;3.58;2.60;;;;;;;;;;5074909;28;20208;-82
2022/08/16 12:55:53;;;;;;;2.67;2.47;;;;;;;;;;5074382;28;20251;-82
2022/08/16 12:58:21;;;;;;;2.85;2.53;;;;;;;;;;5075376;28;20211;-81
2022/08/16 13:00:48;;;;;;;2.75;2.45;;;;;;;;;;5074046;28;20247;-82
2022/08/16 13:03:16;;;;;;;3.03;2.65;;;;;;;;;;5058140;28;20548;-82
2022/08/16 13:05:43;;;;;;;2.88;2.58;;;;;;;;;;5053775;28;20263;-82
2022/08/16 13:08:13;;;;;;;2.53;2.33;;;;;;;;;;5054864;28;20259;-82
2022/08/16 13:10:42;;;;;;;2.75;2.47;;;;;;;;;;5053933;28;20253;-82
2022/08/16 13:13:09;;;;;;;6.38;3.50;;;;;;;;;;5054714;28;20202;-82
2022/08/16 13:15:37;;;;;;;3.85;2.70;;;;;;;;;;5053950;28;20577;-83
2022/08/16 13:18:05;;;;;;;3.00;2.70;;;;;;;;;;5054422;28;20260;-82
2022/08/16 13:20:32;;;;;;;4.38;2.85;;;;;;;;;;5053804;28;20654;-83
2022/08/16 13:23:00;;;;;;;6.47;3.05;;;;;;;;;;5053901;28;20209;-81
2022/08/16 13:25:31;;;;;;;3.50;2.30;;;;;;;;;;5053584;28;20245;-82
2022/08/16 13:27:58;;;;;;;3.45;2.50;;;;;;;;;;5054171;28;20212;-82
2022/08/16 13:30:26;;;;;;;2.60;2.40;;;;;;;;;;5053421;28;20241;-82
2022/08/16 13:32:53;;;;;;;3.03;2.45;;;;;;;;;;5053429;28;20209;-82
2022/08/16 13:35:21;;;;;;;3.08;2.78;;;;;;;;;;5053715;28;20280;-83
2022/08/16 13:37:48;;;;;;;3.95;3.58;;;;;;;;;;5053640;28;20205;-82
2022/08/16 13:40:15;;;;;;;3.38;2.60;;;;;;;;;;5053421;28;20241;-82
2022/08/16 13:42:44;;;;;;;2.75;2.55;;;;;;;;;;5053545;28;20259;-82
2022/08/16 13:45:12;;;;;;;2.85;2.65;;;;;;;;;;5053595;28;20272;-81
2022/08/16 13:47:40;;;;;;;10.05;3.20;;;;;;;;;;5053657;28;20201;-82
2022/08/16 13:50:08;;;;;;;6.32;3.05;;;;;;;;;;5053409;28;20652;-83
2022/08/16 13:52:35;;;;;;;3.38;2.53;;;;;;;;;;5052659;28;20675;-82
2022/08/16 13:55:02;;;;;;;5.15;2.67;;;;;;;;;;5053619;28;20210;-82
2022/08/16 13:57:29;;;;;;;4.00;2.50;;;;;;;;;;5054063;28;20214;-82
2022/08/16 13:59:58;;;;;;;2.63;2.42;;;;;;;;;;5053639;28;20221;-82
2022/08/16 14:02:25;;;;;;;4.28;2.42;;;;;;;;;;5053884;28;20210;-82
2022/08/16 14:04:52;;;;;;;3.95;2.67;;;;;;;;;;5053282;28;20662;-81
2022/08/16 14:07:20;;;;;;;2.80;2.60;;;;;;;;;;5053609;28;20687;-82
2022/08/16 14:09:47;;;;;;;2.83;2.63;;;;;;;;;;5052973;28;20230;-82
2022/08/16 14:12:18;;;;;;;3.97;2.38;;;;;;;;;;5053406;28;20303;-82
2022/08/16 14:14:45;;;;;;;2.95;2.65;;;;;;;;;;5053011;28;20219;-82
2022/08/16 14:17:14;;;;;;;2.42;2.20;;;;;;;;;;5053373;28;20210;-81
2022/08/16 14:19:42;;;;;;;2.80;2.60;;;;;;;;;;5053416;28;20233;-82
2022/08/16 14:22:09;;;;;;;5.07;3.30;;;;;;;;;;5053342;28;20312;-82
2022/08/16 14:24:37;;;;;;;2.83;2.60;;;;;;;;;;5053645;28;20600;-82
2022/08/16 14:27:04;;;;;;;9.65;2.90;;;;;;;;;;5052675;28;20605;-83
2022/08/16 14:29:32;;;;;;;2.85;2.60;;;;;;;;;;5053506;28;20233;-81
2022/08/16 14:31:59;;;;;;;2.97;2.60;;;;;;;;;;5052268;28;20299;-81
2022/08/16 14:34:27;;;;;;;3.20;2.75;;;;;;;;;;5053173;28;20223;-82
2022/08/16 14:36:54;;;;;;;4.70;2.60;;;;;;;;;;5052276;28;20236;-81
2022/08/16 14:39:21;;;;;;;3.08;2.88;;;;;;;;;;5052840;28;20230;-82
2022/08/16 14:41:48;;;;;;;3.03;2.78;;;;;;;;;;5052621;28;20233;-82
2022/08/16 14:44:16;;;;;;;3.08;2.40;;;;;;;;;;5053207;28;20237;-82
2022/08/16 14:46:43;;;;;;;2.58;2.33;;;;;;;;;;5052414;28;20635;-82
2022/08/16 14:49:10;;;;;;;4.32;2.75;;;;;;;;;;5053175;28;20225;-82
2022/08/16 14:51:38;;;;;;;3.53;2.63;;;;;;;;;;5052667;28;20283;-83